Time;durP1;ratioP1;P1;durP2;ratioP2;P2;SDS_P1;SDS_P2;PMS_P1;PMS_P2;Temp;Humidity;BMP_temperature;BMP_pressure;BME280_temperature;BME280_humidity;BME280_pressure;Samples;Min_cycle;Max_cycle;Signal;HPM_P1;HPM_P2
2022/08/04 00:00:26;;;;;;;12.50;3.63;;;;;;;;;;5058802;28;20485;-81
2022/08/04 00:03:11;;;;;;;11.82;3.30;;;;;;;;;;5067050;28;20055;-81
2022/08/04 00:05:40;;;;;;;9.30;3.30;;;;;;;;;;5074328;28;20485;-73
2022/08/04 00:08:15;;;;;;;11.60;3.50;;;;;;;;;;5057407;28;20119;-73
2022/08/04 00:10:44;;;;;;;8.05;2.90;;;;;;;;;;5073057;28;20040;-73
2022/08/04 00:13:10;;;;;;;9.57;3.15;;;;;;;;;;5057004;28;20181;-73
2022/08/04 00:15:36;;;;;;;11.40;3.58;;;;;;;;;;5056996;28;20392;-73
2022/08/04 00:18:04;;;;;;;8.85;3.50;;;;;;;;;;5074246;28;20044;-81
2022/08/04 00:20:32;;;;;;;11.82;3.47;;;;;;;;;;5073163;28;20515;-73
2022/08/04 00:22:59;;;;;;;8.00;3.45;;;;;;;;;;5084449;28;20507;-81
2022/08/04 00:25:25;;;;;;;11.15;3.70;;;;;;;;;;5074944;28;20041;-81
2022/08/04 00:27:52;;;;;;;13.63;3.70;;;;;;;;;;5081871;28;20508;-81
2022/08/04 00:30:18;;;;;;;16.17;3.90;;;;;;;;;;5060203;28;20531;-73
2022/08/04 00:32:44;;;;;;;7.70;3.80;;;;;;;;;;5055466;28;20048;-73
2022/08/04 00:35:14;;;;;;;7.75;3.85;;;;;;;;;;5075684;28;20054;-73
2022/08/04 00:37:40;;;;;;;16.88;4.13;;;;;;;;;;5077288;28;20044;-81
2022/08/04 00:40:13;;;;;;;10.80;3.67;;;;;;;;;;5092018;28;20480;-73
2022/08/04 00:42:39;;;;;;;12.95;4.00;;;;;;;;;;5068708;28;20067;-81
2022/08/04 00:45:24;;;;;;;10.73;4.55;;;;;;;;;;5061147;28;20070;-81
2022/08/04 00:48:09;;;;;;;12.73;4.47;;;;;;;;;;5057170;28;20063;-81
2022/08/04 00:50:41;;;;;;;12.55;4.07;;;;;;;;;;5073322;28;20058;-73
2022/08/04 00:53:27;;;;;;;13.98;4.30;;;;;;;;;;5076912;28;20497;-73
2022/08/04 00:56:11;;;;;;;11.13;4.10;;;;;;;;;;5059701;28;20071;-73
2022/08/04 00:58:40;;;;;;;12.65;3.88;;;;;;;;;;5076910;28;20073;-73
2022/08/04 01:01:13;;;;;;;10.88;4.20;;;;;;;;;;5060338;28;20119;-73
2022/08/04 01:03:45;;;;;;;11.60;4.70;;;;;;;;;;5075970;28;20408;-73
2022/08/04 01:06:18;;;;;;;13.82;4.53;;;;;;;;;;5076511;28;20123;-73
2022/08/04 01:08:44;;;;;;;10.00;4.78;;;;;;;;;;5076894;28;20118;-81
2022/08/04 01:11:19;;;;;;;9.68;4.20;;;;;;;;;;5077124;28;20184;-81
2022/08/04 01:13:57;;;;;;;11.23;4.70;;;;;;;;;;5076385;28;20052;-81
2022/08/04 01:16:25;;;;;;;11.07;4.60;;;;;;;;;;5087447;28;20039;-81
2022/08/04 01:18:57;;;;;;;13.75;5.03;;;;;;;;;;5089138;28;20139;-81
2022/08/04 01:21:29;;;;;;;12.75;4.78;;;;;;;;;;5079333;28;20122;-81
2022/08/04 01:24:01;;;;;;;11.02;4.88;;;;;;;;;;5085043;28;20500;-81
2022/08/04 01:26:33;;;;;;;10.43;4.38;;;;;;;;;;5063264;28;20036;-81
2022/08/04 01:29:10;;;;;;;11.40;4.80;;;;;;;;;;5066556;28;20040;-81
2022/08/04 01:31:59;;;;;;;14.85;5.55;;;;;;;;;;5057049;28;20059;-81
2022/08/04 01:34:28;;;;;;;14.07;5.28;;;;;;;;;;5076404;28;20044;-81
2022/08/04 01:37:07;;;;;;;11.05;4.80;;;;;;;;;;5080252;28;20480;-81
2022/08/04 01:39:41;;;;;;;13.02;5.90;;;;;;;;;;5078189;28;20123;-81
2022/08/04 01:42:08;;;;;;;13.05;5.22;;;;;;;;;;5076495;28;20036;-81
2022/08/04 01:44:35;;;;;;;8.75;4.07;;;;;;;;;;5059219;28;20032;-81
2022/08/04 01:47:02;;;;;;;12.18;5.22;;;;;;;;;;5050041;28;20402;-81
2022/08/04 01:49:31;;;;;;;8.15;4.20;;;;;;;;;;5073997;28;20409;-81
2022/08/04 01:51:58;;;;;;;12.38;4.93;;;;;;;;;;5084246;28;20036;-81
2022/08/04 01:54:28;;;;;;;12.02;4.55;;;;;;;;;;5062588;28;20374;-81
2022/08/04 01:56:55;;;;;;;14.60;5.40;;;;;;;;;;5099805;28;20496;-81
2022/08/04 01:59:22;;;;;;;9.60;4.82;;;;;;;;;;5083112;28;20040;-81
2022/08/04 02:01:48;;;;;;;8.55;5.00;;;;;;;;;;5075541;28;20404;-81
2022/08/04 02:04:15;;;;;;;12.80;5.47;;;;;;;;;;5075594;28;20051;-81
2022/08/04 02:07:00;;;;;;;8.10;3.83;;;;;;;;;;5076561;28;20036;-81
2022/08/04 02:09:32;;;;;;;9.02;3.95;;;;;;;;;;5068240;28;20049;-81
2022/08/04 02:12:03;;;;;;;9.35;3.83;;;;;;;;;;5086344;28;20067;-81
2022/08/04 02:14:39;;;;;;;6.82;3.40;;;;;;;;;;5075686;28;20126;-81
2022/08/04 02:17:21;;;;;;;9.52;3.63;;;;;;;;;;5065633;28;20435;-81
2022/08/04 02:19:53;;;;;;;13.80;4.30;;;;;;;;;;5057169;28;20040;-81
2022/08/04 02:22:21;;;;;;;9.45;4.50;;;;;;;;;;5075193;28;20507;-81
2022/08/04 02:24:58;;;;;;;11.20;5.30;;;;;;;;;;5065119;28;20033;-81
2022/08/04 02:27:27;;;;;;;11.98;5.00;;;;;;;;;;5055121;28;20044;-73
2022/08/04 02:29:59;;;;;;;10.15;4.60;;;;;;;;;;5065984;28;20111;-80
2022/08/04 02:32:26;;;;;;;10.40;5.07;;;;;;;;;;5075316;28;20505;-81
2022/08/04 02:35:21;;;;;;;11.23;5.22;;;;;;;;;;5055136;28;20512;-81
2022/08/04 02:37:48;;;;;;;11.88;4.97;;;;;;;;;;5062148;28;20040;-81
2022/08/04 02:40:18;;;;;;;11.20;5.72;;;;;;;;;;5088017;28;20042;-81
2022/08/04 02:42:45;;;;;;;10.07;4.95;;;;;;;;;;5081220;28;20039;-81
2022/08/04 02:45:12;;;;;;;8.07;4.22;;;;;;;;;;5078473;28;20518;-81
2022/08/04 02:47:38;;;;;;;15.15;5.47;;;;;;;;;;5076464;28;20120;-81
2022/08/04 02:50:05;;;;;;;13.75;5.15;;;;;;;;;;5074861;28;20040;-81
2022/08/04 02:52:32;;;;;;;12.55;4.95;;;;;;;;;;5078972;28;20453;-81
2022/08/04 02:54:59;;;;;;;11.48;5.13;;;;;;;;;;5074768;28;20024;-81
2022/08/04 02:57:29;;;;;;;10.18;4.50;;;;;;;;;;5074402;28;20119;-81
2022/08/04 03:00:09;;;;;;;10.55;5.10;;;;;;;;;;5074297;28;20067;-81
2022/08/04 03:03:07;;;;;;;11.48;4.90;;;;;;;;;;5074795;28;20409;-81
2022/08/04 03:05:39;;;;;;;10.23;5.18;;;;;;;;;;5026539;28;20597;-81
2022/08/04 03:08:24;;;;;;;10.50;5.20;;;;;;;;;;5074442;28;20149;-81
2022/08/04 03:11:16;;;;;;;9.00;4.65;;;;;;;;;;5069953;28;20043;-73
2022/08/04 03:13:57;;;;;;;12.20;5.03;;;;;;;;;;5048165;28;20433;-81
2022/08/04 03:16:35;;;;;;;13.40;4.82;;;;;;;;;;5080542;28;20043;-80
2022/08/04 03:19:20;;;;;;;11.85;5.07;;;;;;;;;;5085369;28;20070;-73
2022/08/04 03:21:55;;;;;;;10.27;5.00;;;;;;;;;;5072477;28;20089;-73
2022/08/04 03:24:32;;;;;;;12.95;4.60;;;;;;;;;;5074780;28;20048;-73
2022/08/04 03:27:34;;;;;;;12.77;4.30;;;;;;;;;;5057857;28;20051;-73
2022/08/04 03:30:03;;;;;;;10.65;5.10;;;;;;;;;;5013770;28;20045;-73
2022/08/04 03:32:39;;;;;;;10.00;4.38;;;;;;;;;;5073405;28;20109;-73
2022/08/04 03:35:23;;;;;;;10.98;4.82;;;;;;;;;;5052756;28;20040;-73
2022/08/04 03:38:08;;;;;;;7.85;4.45;;;;;;;;;;5054908;28;20146;-81
2022/08/04 03:40:37;;;;;;;15.60;4.32;;;;;;;;;;5069155;28;20554;-81
2022/08/04 03:43:03;;;;;;;11.05;5.03;;;;;;;;;;5074057;28;20044;-73
2022/08/04 03:45:42;;;;;;;11.10;4.93;;;;;;;;;;5084664;28;20040;-81
2022/08/04 03:48:14;;;;;;;12.10;4.50;;;;;;;;;;5067542;28;20084;-73
2022/08/04 03:53:53;;;;;;;7.40;4.28;;;;;;;;;;5065701;28;20075;-80
2022/08/04 03:56:31;;;;;;;8.13;4.45;;;;;;;;;;5074546;28;20032;-73
2022/08/04 03:59:00;;;;;;;9.65;4.45;;;;;;;;;;5064713;28;20036;-80
2022/08/04 04:01:26;;;;;;;11.20;4.95;;;;;;;;;;5073630;28;20044;-81
2022/08/04 04:04:22;;;;;;;13.90;4.70;;;;;;;;;;5067953;28;20124;-81
2022/08/04 04:07:07;;;;;;;11.35;4.30;;;;;;;;;;5051333;28;20039;-73
2022/08/04 04:09:36;;;;;;;10.50;5.10;;;;;;;;;;5069259;28;20040;-74
2022/08/04 04:12:17;;;;;;;13.00;5.45;;;;;;;;;;5086887;28;20065;-74
2022/08/04 04:14:58;;;;;;;9.70;4.60;;;;;;;;;;5069445;28;20040;-80
2022/08/04 04:17:33;;;;;;;8.32;4.28;;;;;;;;;;5083121;28;20111;-75
2022/08/04 04:20:22;;;;;;;15.98;5.03;;;;;;;;;;5081312;28;20035;-73
2022/08/04 04:23:04;;;;;;;9.35;4.85;;;;;;;;;;5091662;28;20040;-80
2022/08/04 04:25:48;;;;;;;12.00;4.80;;;;;;;;;;5068270;28;20052;-74
2022/08/04 04:28:21;;;;;;;8.63;4.88;;;;;;;;;;5066084;28;20097;-80
2022/08/04 04:31:05;;;;;;;12.13;4.20;;;;;;;;;;5073141;28;20036;-74
2022/08/04 04:33:32;;;;;;;9.50;4.43;;;;;;;;;;5077916;28;20051;-80
2022/08/04 04:36:07;;;;;;;11.48;4.57;;;;;;;;;;5075521;28;20052;-74
2022/08/04 04:38:44;;;;;;;11.25;4.95;;;;;;;;;;5071299;28;20051;-74
2022/08/04 04:41:21;;;;;;;8.80;4.25;;;;;;;;;;5077079;28;20047;-80
2022/08/04 04:43:59;;;;;;;11.10;4.40;;;;;;;;;;5085356;28;20123;-81
2022/08/04 04:46:44;;;;;;;9.43;4.35;;;;;;;;;;5064778;28;20039;-81
2022/08/04 04:49:13;;;;;;;10.93;4.50;;;;;;;;;;5063135;28;20475;-74
2022/08/04 04:51:39;;;;;;;7.80;4.57;;;;;;;;;;5077464;28;20036;-74
2022/08/04 04:54:06;;;;;;;9.20;5.00;;;;;;;;;;5059794;28;20071;-74
2022/08/04 04:56:45;;;;;;;7.80;4.28;;;;;;;;;;5060535;28;20047;-74
2022/08/04 04:59:15;;;;;;;9.90;5.05;;;;;;;;;;5076695;28;20123;-80
2022/08/04 05:01:53;;;;;;;11.20;4.38;;;;;;;;;;5060754;28;20512;-81
2022/08/04 05:04:22;;;;;;;10.75;4.40;;;;;;;;;;5076535;28;20512;-81
2022/08/04 05:06:51;;;;;;;10.30;4.50;;;;;;;;;;5077071;28;20038;-75
2022/08/04 05:09:17;;;;;;;7.43;3.95;;;;;;;;;;5059807;28;20036;-75
2022/08/04 05:11:46;;;;;;;10.18;4.53;;;;;;;;;;5076831;28;20518;-81
2022/08/04 05:14:28;;;;;;;9.45;4.57;;;;;;;;;;5060021;28;20051;-82
2022/08/04 05:17:02;;;;;;;11.75;5.03;;;;;;;;;;5093350;28;20370;-81
2022/08/04 05:19:34;;;;;;;7.72;4.38;;;;;;;;;;5074775;28;20094;-74
2022/08/04 05:22:06;;;;;;;9.65;4.40;;;;;;;;;;5066362;28;20032;-74
2022/08/04 05:24:35;;;;;;;8.88;5.40;;;;;;;;;;5084949;28;20124;-74
2022/08/04 05:27:02;;;;;;;10.10;5.47;;;;;;;;;;5060681;28;20094;-75
2022/08/04 05:29:30;;;;;;;10.80;4.80;;;;;;;;;;5081537;28;20036;-74
2022/08/04 05:31:57;;;;;;;11.70;6.47;;;;;;;;;;5068826;28;20502;-75
2022/08/04 05:34:25;;;;;;;13.52;5.55;;;;;;;;;;5108021;28;20119;-75
2022/08/04 05:36:55;;;;;;;11.13;5.68;;;;;;;;;;5101115;28;20044;-75
2022/08/04 05:39:25;;;;;;;15.27;6.03;;;;;;;;;;5074805;28;20488;-75
2022/08/04 05:41:56;;;;;;;12.73;5.93;;;;;;;;;;5076291;28;20469;-75
2022/08/04 05:44:23;;;;;;;9.60;5.03;;;;;;;;;;5054713;28;20451;-75
2022/08/04 05:46:56;;;;;;;10.60;5.45;;;;;;;;;;5066135;28;20035;-75
2022/08/04 05:49:29;;;;;;;12.45;5.40;;;;;;;;;;5051800;28;20479;-75
2022/08/04 05:51:58;;;;;;;12.38;5.93;;;;;;;;;;5070468;28;20068;-76
2022/08/04 05:54:24;;;;;;;10.15;4.93;;;;;;;;;;5063922;28;20094;-76
2022/08/04 05:56:50;;;;;;;10.05;4.93;;;;;;;;;;5065137;28;20512;-76
2022/08/04 05:59:18;;;;;;;14.65;5.80;;;;;;;;;;5047789;28;20040;-75
2022/08/04 06:01:44;;;;;;;9.15;5.07;;;;;;;;;;5057896;28;20044;-76
2022/08/04 06:04:11;;;;;;;8.85;4.72;;;;;;;;;;5072495;28;20170;-76
2022/08/04 06:06:37;;;;;;;7.70;4.25;;;;;;;;;;5076827;28;20489;-82
2022/08/04 06:09:03;;;;;;;9.40;4.10;;;;;;;;;;5075631;28;20040;-82
2022/08/04 06:11:29;;;;;;;12.25;4.68;;;;;;;;;;5042790;28;20028;-83
2022/08/04 06:13:58;;;;;;;8.38;4.28;;;;;;;;;;5073877;28;20509;-82
2022/08/04 06:16:24;;;;;;;11.75;4.00;;;;;;;;;;5065505;28;20035;-83
2022/08/04 06:18:52;;;;;;;7.15;3.90;;;;;;;;;;5076322;28;20082;-83
2022/08/04 06:21:21;;;;;;;8.05;4.00;;;;;;;;;;5064126;28;20048;-83
2022/08/04 06:23:48;;;;;;;7.90;3.65;;;;;;;;;;5057870;28;20075;-83
2022/08/04 06:26:18;;;;;;;11.77;3.42;;;;;;;;;;5072704;28;20040;-84
2022/08/04 06:28:48;;;;;;;9.48;3.67;;;;;;;;;;5074161;28;20124;-81
2022/08/04 06:31:30;;;;;;;8.88;2.95;;;;;;;;;;5055842;28;20045;-83
2022/08/04 06:33:57;;;;;;;9.07;3.22;;;;;;;;;;5071638;28;20074;-83
2022/08/04 06:36:23;;;;;;;9.60;3.60;;;;;;;;;;5075386;28;20048;-83
2022/08/04 06:38:50;;;;;;;7.97;3.60;;;;;;;;;;5064763;28;20119;-83
2022/08/04 06:41:16;;;;;;;13.82;4.07;;;;;;;;;;5071335;28;20048;-83
2022/08/04 06:43:43;;;;;;;10.32;3.88;;;;;;;;;;5081681;28;20046;-83
2022/08/04 06:46:09;;;;;;;9.38;4.22;;;;;;;;;;5080041;28;20036;-83
2022/08/04 06:48:36;;;;;;;5.88;3.90;;;;;;;;;;5076330;28;20036;-83
2022/08/04 06:51:02;;;;;;;11.38;4.50;;;;;;;;;;5083385;28;20085;-83
2022/08/04 06:53:29;;;;;;;11.77;4.35;;;;;;;;;;5074183;28;20440;-83
2022/08/04 06:55:56;;;;;;;8.15;4.00;;;;;;;;;;5059295;28;20048;-83
2022/08/04 06:58:22;;;;;;;9.98;4.70;;;;;;;;;;5075846;28;20043;-83
2022/08/04 07:00:49;;;;;;;9.77;4.22;;;;;;;;;;5066217;28;20046;-83
2022/08/04 07:03:16;;;;;;;12.63;4.43;;;;;;;;;;5083570;28;20119;-83
2022/08/04 07:05:42;;;;;;;11.45;4.25;;;;;;;;;;5082868;28;20086;-83
2022/08/04 07:08:12;;;;;;;10.60;4.65;;;;;;;;;;5087060;28;20043;-83
2022/08/04 07:10:39;;;;;;;9.43;4.80;;;;;;;;;;5074950;28;20054;-81
2022/08/04 07:13:06;;;;;;;9.90;4.53;;;;;;;;;;5085703;28;20116;-83
2022/08/04 07:15:32;;;;;;;9.02;4.38;;;;;;;;;;5083551;28;20051;-83
2022/08/04 07:18:03;;;;;;;10.57;4.00;;;;;;;;;;5056806;28;20124;-76
2022/08/04 07:20:29;;;;;;;8.60;4.25;;;;;;;;;;5084090;28;20392;-76
2022/08/04 07:22:56;;;;;;;8.07;3.70;;;;;;;;;;5078330;28;20063;-76
2022/08/04 07:25:22;;;;;;;12.77;4.03;;;;;;;;;;5077753;28;20043;-75
2022/08/04 07:27:48;;;;;;;11.43;3.67;;;;;;;;;;5070004;28;20059;-76
2022/08/04 07:30:15;;;;;;;7.82;3.28;;;;;;;;;;5080166;28;20078;-84
2022/08/04 07:32:42;;;;;;;9.40;3.65;;;;;;;;;;5067203;28;20051;-84
2022/08/04 07:35:09;;;;;;;10.80;3.60;;;;;;;;;;5054768;28;20036;-81
2022/08/04 07:37:35;;;;;;;8.18;3.65;;;;;;;;;;5063831;28;20114;-84
2022/08/04 07:40:02;;;;;;;10.90;3.67;;;;;;;;;;5057342;28;20484;-83
2022/08/04 07:42:28;;;;;;;30.92;4.68;;;;;;;;;;5074003;28;20044;-80
2022/08/04 07:44:54;;;;;;;78.18;6.63;;;;;;;;;;5058481;28;20043;-81
2022/08/04 07:47:20;;;;;;;12.30;4.10;;;;;;;;;;5074699;28;20563;-80
2022/08/04 07:49:46;;;;;;;8.82;3.83;;;;;;;;;;5057137;28;20119;-82
2022/08/04 07:52:12;;;;;;;11.35;3.75;;;;;;;;;;5072940;28;20381;-84
2022/08/04 07:54:39;;;;;;;10.55;3.25;;;;;;;;;;5087459;28;20039;-79
2022/08/04 07:57:05;;;;;;;6.95;3.17;;;;;;;;;;5074297;28;20074;-78
2022/08/04 07:59:32;;;;;;;6.18;3.10;;;;;;;;;;5057343;28;20506;-80
2022/08/04 08:01:58;;;;;;;7.80;3.60;;;;;;;;;;5074007;28;20384;-82
2022/08/04 08:04:25;;;;;;;6.43;3.10;;;;;;;;;;5056503;28;20047;-76
2022/08/04 08:06:52;;;;;;;9.52;3.60;;;;;;;;;;5055028;28;20028;-81
2022/08/04 08:09:20;;;;;;;11.63;3.80;;;;;;;;;;5057137;28;20105;-82
2022/08/04 08:11:47;;;;;;;8.45;4.00;;;;;;;;;;5085659;28;20548;-79
2022/08/04 08:14:13;;;;;;;15.13;4.40;;;;;;;;;;5074119;28;20105;-78
2022/08/04 08:16:40;;;;;;;9.43;3.65;;;;;;;;;;5080624;28;20040;-79
2022/08/04 08:19:06;;;;;;;8.80;3.25;;;;;;;;;;5084641;28;20473;-77
2022/08/04 08:21:32;;;;;;;10.63;3.50;;;;;;;;;;5077022;28;20580;-79
2022/08/04 08:23:59;;;;;;;6.75;3.10;;;;;;;;;;5074046;28;20041;-79
2022/08/04 08:26:25;;;;;;;7.68;3.10;;;;;;;;;;5082255;28;20451;-81
2022/08/04 08:28:51;;;;;;;7.53;2.85;;;;;;;;;;5054171;28;20082;-79
2022/08/04 08:31:17;;;;;;;7.40;3.13;;;;;;;;;;5060530;28;20467;-78
2022/08/04 08:33:43;;;;;;;10.00;2.80;;;;;;;;;;5046551;28;20074;-77
2022/08/04 08:36:17;;;;;;;5.90;2.17;;;;;;;;;;5063891;28;20048;-78
2022/08/04 08:38:56;;;;;;;5.00;1.73;;;;;;;;;;5038543;28;20080;-78
2022/08/04 08:41:31;;;;;;;6.65;2.20;;;;;;;;;;5058839;28;20116;-79
2022/08/04 08:44:01;;;;;;;;;;;;;;;;;;5051549;28;20044;-79
2022/08/04 08:46:42;;;;;;;6.63;2.70;;;;;;;;;;5036617;28;19969;-78
2022/08/04 08:49:14;;;;;;;16.50;3.60;;;;;;;;;;5051253;28;20147;-81
2022/08/04 08:52:10;;;;;;;5.47;2.05;;;;;;;;;;5052371;28;20123;-82
2022/08/04 08:54:36;;;;;;;;;;;;;;;;;;5051418;28;20028;-82
2022/08/04 08:57:19;;;;;;;4.88;2.10;;;;;;;;;;5056456;28;19924;-82
2022/08/04 09:00:07;;;;;;;6.60;1.75;;;;;;;;;;5042379;28;20052;-79
2022/08/04 09:02:51;;;;;;;9.52;1.90;;;;;;;;;;5039470;28;20045;-81
2022/08/04 09:05:37;;;;;;;6.15;1.83;;;;;;;;;;5052620;28;20047;-79
2022/08/04 09:08:03;;;;;;;10.23;2.00;;;;;;;;;;5055336;28;20040;-77
2022/08/04 09:10:44;;;;;;;76.78;8.00;;;;;;;;;;5040168;28;20048;-78
2022/08/04 09:13:10;;;;;;;12.32;2.63;;;;;;;;;;5057187;28;20052;-78
2022/08/04 09:15:54;;;;;;;8.38;1.92;;;;;;;;;;5051903;28;20037;-78
2022/08/04 09:18:23;;;;;;;11.38;2.00;;;;;;;;;;5040803;28;20037;-77
2022/08/04 09:20:58;;;;;;;7.63;1.95;;;;;;;;;;5031175;28;20050;-79
2022/08/04 09:23:31;;;;;;;7.30;1.63;;;;;;;;;;5055066;28;20047;-77
2022/08/04 09:26:01;;;;;;;8.38;1.92;;;;;;;;;;5037146;28;20143;-73
2022/08/04 09:28:29;;;;;;;8.40;2.42;;;;;;;;;;5058390;28;20071;-75
2022/08/04 09:31:11;;;;;;;8.10;2.30;;;;;;;;;;5063894;28;20378;-81
2022/08/04 09:33:37;;;;;;;6.75;2.10;;;;;;;;;;5066792;28;20040;-80
2022/08/04 09:36:12;;;;;;;8.23;2.00;;;;;;;;;;5058452;28;20054;-80
2022/08/04 09:38:45;;;;;;;10.50;2.30;;;;;;;;;;5060628;28;20582;-78
2022/08/04 09:41:20;;;;;;;7.18;2.17;;;;;;;;;;5079522;28;20083;-79
2022/08/04 09:43:55;;;;;;;4.88;2.03;;;;;;;;;;5083260;28;20039;-80
2022/08/04 09:46:34;;;;;;;5.93;1.52;;;;;;;;;;5062592;28;20088;-77
2022/08/04 09:49:18;;;;;;;6.35;1.33;;;;;;;;;;5076306;28;20362;-83
2022/08/04 09:51:52;;;;;;;6.95;1.67;;;;;;;;;;5064910;28;20496;-84
2022/08/04 09:54:27;;;;;;;6.75;1.30;;;;;;;;;;5059468;28;20044;-81
2022/08/04 09:56:57;;;;;;;5.60;1.65;;;;;;;;;;5075698;28;20074;-81
2022/08/04 09:59:26;;;;;;;5.43;1.60;;;;;;;;;;5076265;28;20411;-81
2022/08/04 10:02:09;;;;;;;5.05;1.95;;;;;;;;;;5075586;28;20109;-76
2022/08/04 10:04:36;;;;;;;5.15;1.77;;;;;;;;;;5074475;28;20047;-78
2022/08/04 10:07:08;;;;;;;4.88;1.50;;;;;;;;;;5075549;28;20111;-79
2022/08/04 10:09:43;;;;;;;8.68;1.40;;;;;;;;;;5075112;28;20043;-80
2022/08/04 10:12:17;;;;;;;5.95;1.65;;;;;;;;;;5075904;28;20040;-79
2022/08/04 10:14:53;;;;;;;7.63;1.30;;;;;;;;;;5084997;28;20043;-78
2022/08/04 10:17:20;;;;;;;3.53;1.00;;;;;;;;;;5075815;28;20488;-80
2022/08/04 10:19:50;;;;;;;2.90;1.20;;;;;;;;;;5074295;28;20071;-79
2022/08/04 10:22:37;;;;;;;4.72;1.20;;;;;;;;;;5075468;28;20058;-80
2022/08/04 10:25:11;;;;;;;4.85;1.10;;;;;;;;;;5075908;28;20048;-77
2022/08/04 10:27:37;;;;;;;;;;;;;;;;;;5081633;28;20051;-76
2022/08/04 10:30:11;;;;;;;3.40;1.30;;;;;;;;;;5078483;28;19926;-77
2022/08/04 10:32:55;;;;;;;3.42;1.27;;;;;;;;;;5064025;28;20074;-77
2022/08/04 10:35:22;;;;;;;3.90;1.30;;;;;;;;;;5064878;28;20440;-77
2022/08/04 10:37:55;;;;;;;4.15;1.40;;;;;;;;;;5053745;28;20047;-78
2022/08/04 10:40:36;;;;;;;5.88;1.33;;;;;;;;;;5063563;28;20123;-78
2022/08/04 10:43:05;;;;;;;4.82;1.20;;;;;;;;;;5068722;28;20096;-79
2022/08/04 10:46:06;;;;;;;5.97;1.58;;;;;;;;;;5087105;28;20037;-78
2022/08/04 10:48:42;;;;;;;4.47;1.33;;;;;;;;;;4987331;28;20034;-79
2022/08/04 10:51:11;;;;;;;3.35;1.25;;;;;;;;;;5066123;28;20039;-79
2022/08/04 10:53:38;;;;;;;5.97;1.58;;;;;;;;;;5075949;28;20127;-79
2022/08/04 10:56:25;;;;;;;3.53;1.35;;;;;;;;;;5081781;28;20040;-79
2022/08/04 10:58:57;;;;;;;4.13;1.35;;;;;;;;;;5067387;28;20079;-81
2022/08/04 11:01:25;;;;;;;3.60;1.20;;;;;;;;;;5061987;28;20039;-77
2022/08/04 11:03:55;;;;;;;4.53;1.42;;;;;;;;;;5087815;28;20039;-77
2022/08/04 11:06:23;;;;;;;2.72;1.20;;;;;;;;;;5100243;28;20488;-76
2022/08/04 11:08:56;;;;;;;3.55;1.13;;;;;;;;;;5088710;28;20062;-79
2022/08/04 11:11:43;;;;;;;2.67;1.10;;;;;;;;;;5084867;28;20441;-72
2022/08/04 11:14:17;;;;;;;4.03;1.10;;;;;;;;;;5093487;28;20054;-76
2022/08/04 11:16:55;;;;;;;3.07;1.00;;;;;;;;;;5068053;28;20048;-79
2022/08/04 11:19:41;;;;;;;2.40;1.15;;;;;;;;;;5064641;28;20793;-76
2022/08/04 11:22:07;;;;;;;2.25;0.98;;;;;;;;;;5062130;28;20469;-77
2022/08/04 11:24:55;;;;;;;4.97;1.23;;;;;;;;;;5072052;28;20400;-79
2022/08/04 11:27:30;;;;;;;3.10;1.05;;;;;;;;;;5084645;28;20142;-73
2022/08/04 11:30:07;;;;;;;4.03;1.20;;;;;;;;;;5078705;28;20043;-72
2022/08/04 11:32:50;;;;;;;2.60;0.95;;;;;;;;;;5061425;28;20042;-74
2022/08/04 11:35:29;;;;;;;2.72;1.13;;;;;;;;;;5057533;28;20493;-73
2022/08/04 11:38:04;;;;;;;2.88;1.10;;;;;;;;;;5073488;28;20036;-73
2022/08/04 11:40:40;;;;;;;2.60;1.15;;;;;;;;;;5073154;28;20301;-72
2022/08/04 11:43:09;;;;;;;2.75;1.00;;;;;;;;;;5072043;28;20054;-71
2022/08/04 11:45:45;;;;;;;2.90;1.20;;;;;;;;;;5073374;28;20043;-73
2022/08/04 11:48:15;;;;;;;2.92;1.10;;;;;;;;;;5073594;28;20040;-72
2022/08/04 11:50:47;;;;;;;4.57;1.55;;;;;;;;;;5091820;28;20120;-75
2022/08/04 11:53:18;;;;;;;3.17;1.10;;;;;;;;;;5073049;28;20047;-75
2022/08/04 11:55:45;;;;;;;2.65;1.00;;;;;;;;;;5073960;28;20043;-73
2022/08/04 11:58:11;;;;;;;2.20;1.00;;;;;;;;;;5056441;28;20050;-78
2022/08/04 12:00:41;;;;;;;2.42;1.15;;;;;;;;;;5057563;28;20036;-77
2022/08/04 12:03:26;;;;;;;4.57;1.40;;;;;;;;;;5071574;28;20044;-79
2022/08/04 12:05:58;;;;;;;5.60;1.05;;;;;;;;;;5071707;28;20093;-77
2022/08/04 12:08:44;;;;;;;4.05;1.20;;;;;;;;;;5064178;28;20393;-78
2022/08/04 12:11:22;;;;;;;4.97;1.20;;;;;;;;;;5082522;28;20063;-76
2022/08/04 12:13:52;;;;;;;4.03;1.13;;;;;;;;;;5083167;28;20040;-80
2022/08/04 12:16:29;;;;;;;3.88;1.17;;;;;;;;;;5080211;28;20492;-76
2022/08/04 12:19:00;;;;;;;3.47;1.20;;;;;;;;;;5069074;28;20481;-77
2022/08/04 12:21:41;;;;;;;4.47;1.35;;;;;;;;;;5077913;28;20044;-75
2022/08/04 12:24:28;;;;;;;4.28;1.40;;;;;;;;;;5060272;28;20175;-75
2022/08/04 12:26:59;;;;;;;8.90;1.48;;;;;;;;;;5057954;28;20081;-79
2022/08/04 12:29:27;;;;;;;4.45;1.30;;;;;;;;;;5070168;28;20043;-78
2022/08/04 12:32:25;;;;;;;4.82;1.25;;;;;;;;;;5076904;28;20035;-77
2022/08/04 12:35:03;;;;;;;3.60;1.15;;;;;;;;;;5033117;28;20123;-78
2022/08/04 12:37:29;;;;;;;3.88;1.50;;;;;;;;;;5072178;28;20039;-77
2022/08/04 12:40:00;;;;;;;3.90;1.33;;;;;;;;;;5077255;28;20040;-77
2022/08/04 12:42:47;;;;;;;4.28;1.20;;;;;;;;;;5069995;28;20036;-78
2022/08/04 12:45:13;;;;;;;4.22;1.38;;;;;;;;;;5081497;28;20051;-76
2022/08/04 12:47:40;;;;;;;3.67;1.20;;;;;;;;;;5082281;28;20104;-75
2022/08/04 12:50:07;;;;;;;7.05;1.40;;;;;;;;;;5089934;28;20043;-74
2022/08/04 12:52:41;;;;;;;6.35;1.50;;;;;;;;;;5077592;28;20493;-77
2022/08/04 12:55:08;;;;;;;3.97;1.05;;;;;;;;;;5104336;28;20395;-74
2022/08/04 12:57:34;;;;;;;6.63;1.88;;;;;;;;;;5077607;28;20098;-84
2022/08/04 13:00:01;;;;;;;3.83;1.33;;;;;;;;;;5100447;28;20391;-83
2022/08/04 13:02:29;;;;;;;9.23;2.05;;;;;;;;;;5066614;28;20116;-81
2022/08/04 13:04:59;;;;;;;16.98;2.05;;;;;;;;;;5074483;28;20128;-79
2022/08/04 13:07:26;;;;;;;8.30;1.88;;;;;;;;;;5070841;28;20028;-81
2022/08/04 13:09:52;;;;;;;2.55;1.02;;;;;;;;;;5065955;28;20559;-82
2022/08/04 13:12:20;;;;;;;3.28;1.38;;;;;;;;;;5077971;28;20036;-81
2022/08/04 13:14:48;;;;;;;2.35;1.02;;;;;;;;;;5076749;28;20119;-80
2022/08/04 13:17:14;;;;;;;3.72;0.80;;;;;;;;;;5071823;28;20062;-80
2022/08/04 13:19:46;;;;;;;3.08;0.90;;;;;;;;;;5062333;28;20558;-82
2022/08/04 13:22:15;;;;;;;3.58;1.10;;;;;;;;;;5072022;28;20074;-77
2022/08/04 13:24:41;;;;;;;1.95;0.90;;;;;;;;;;5060654;28;20045;-80
2022/08/04 13:27:12;;;;;;;2.67;0.90;;;;;;;;;;5074879;28;20043;-80
2022/08/04 13:29:45;;;;;;;2.53;0.80;;;;;;;;;;5067020;28;20044;-81
2022/08/04 13:32:15;;;;;;;3.10;0.98;;;;;;;;;;5065394;28;20036;-74
2022/08/04 13:34:42;;;;;;;2.55;1.00;;;;;;;;;;5061009;28;20036;-76
2022/08/04 13:37:09;;;;;;;2.42;1.00;;;;;;;;;;5082479;28;20050;-75
2022/08/04 13:39:36;;;;;;;3.58;1.00;;;;;;;;;;5069378;28;20036;-75
2022/08/04 13:42:04;;;;;;;2.45;1.02;;;;;;;;;;5075698;28;20500;-76
2022/08/04 13:44:37;;;;;;;2.78;1.00;;;;;;;;;;5075822;28;20052;-76
2022/08/04 13:47:09;;;;;;;2.78;1.00;;;;;;;;;;5093851;28;20043;-75
2022/08/04 13:49:35;;;;;;;2.45;0.90;;;;;;;;;;5058942;28;20385;-75
2022/08/04 13:52:02;;;;;;;2.13;0.90;;;;;;;;;;5075710;28;20036;-76
2022/08/04 13:54:36;;;;;;;2.33;1.00;;;;;;;;;;5058912;28;20500;-75
2022/08/04 13:57:05;;;;;;;4.32;1.17;;;;;;;;;;5075508;28;20039;-75
2022/08/04 13:59:34;;;;;;;2.78;0.93;;;;;;;;;;5076614;28;20042;-75
2022/08/04 14:02:04;;;;;;;2.00;1.02;;;;;;;;;;5059338;28;20515;-75
2022/08/04 14:04:34;;;;;;;3.13;1.10;;;;;;;;;;5075962;28;20081;-74
2022/08/04 14:07:03;;;;;;;3.15;1.10;;;;;;;;;;5072992;28;20046;-74
2022/08/04 14:09:31;;;;;;;3.85;1.10;;;;;;;;;;5078157;28;20045;-74
2022/08/04 14:12:04;;;;;;;2.88;1.17;;;;;;;;;;5087751;28;20085;-75
2022/08/04 14:14:31;;;;;;;3.42;1.40;;;;;;;;;;5049201;28;20051;-74
2022/08/04 14:17:00;;;;;;;5.20;1.60;;;;;;;;;;5085649;28;20037;-76
2022/08/04 14:19:27;;;;;;;2.83;1.20;;;;;;;;;;5077624;28;20040;-75
2022/08/04 14:21:53;;;;;;;3.33;1.20;;;;;;;;;;5077569;28;20040;-78
2022/08/04 14:24:27;;;;;;;4.00;1.20;;;;;;;;;;5060842;28;20044;-76
2022/08/04 14:26:59;;;;;;;3.85;1.08;;;;;;;;;;5057728;28;20032;-74
2022/08/04 14:29:25;;;;;;;3.22;1.10;;;;;;;;;;5082021;28;20601;-77
2022/08/04 14:31:59;;;;;;;2.75;1.10;;;;;;;;;;5069836;28;20040;-74
2022/08/04 14:34:26;;;;;;;3.63;1.13;;;;;;;;;;5047581;28;20083;-75
2022/08/04 14:36:53;;;;;;;4.80;1.25;;;;;;;;;;5071233;28;20396;-74
2022/08/04 14:39:35;;;;;;;4.78;1.20;;;;;;;;;;5056048;28;20487;-76
2022/08/04 14:42:01;;;;;;;5.47;1.05;;;;;;;;;;5046056;28;20103;-78
2022/08/04 14:44:27;;;;;;;4.22;1.20;;;;;;;;;;5044015;28;20417;-75
2022/08/04 14:46:54;;;;;;;3.00;1.00;;;;;;;;;;5063027;28;20037;-74
2022/08/04 14:49:21;;;;;;;2.88;1.10;;;;;;;;;;5057609;28;20511;-76
2022/08/04 14:51:54;;;;;;;2.25;1.10;;;;;;;;;;5074447;28;20115;-75
2022/08/04 14:54:30;;;;;;;4.03;0.98;;;;;;;;;;5074972;28;20055;-76
2022/08/04 14:56:58;;;;;;;3.08;1.02;;;;;;;;;;5077198;28;20040;-74
2022/08/04 14:59:24;;;;;;;2.70;1.05;;;;;;;;;;5067670;28;20103;-74
2022/08/04 15:01:50;;;;;;;2.70;0.90;;;;;;;;;;5067557;28;20570;-75
2022/08/04 15:04:17;;;;;;;2.70;0.80;;;;;;;;;;5072428;28;20051;-75
2022/08/04 15:06:43;;;;;;;2.00;0.90;;;;;;;;;;5073487;28;20028;-78
2022/08/04 15:09:10;;;;;;;2.78;1.00;;;;;;;;;;5080476;28;20211;-77